createdAt,value
2018-08-12T00:01:19.939Z,16.21
2018-08-12T00:12:29.536Z,16.26
2018-08-12T00:16:24.872Z,16.29
2018-08-12T00:21:20.032Z,16.03
2018-08-12T00:29:46.441Z,16.13
2018-08-12T00:30:49.242Z,16.05
2018-08-12T00:33:50.410Z,15.87
2018-08-12T00:41:18.289Z,15.65
2018-08-12T00:45:18.876Z,15.76
2018-08-12T00:48:16.533Z,15.78
2018-08-12T00:51:59.257Z,15.98
2018-08-12T01:03:52.851Z,15.84
2018-08-12T01:09:42.600Z,15.77
2018-08-12T01:10:42.597Z,15.70
2018-08-12T01:23:02.659Z,15.84
2018-08-12T01:29:05.270Z,15.68
2018-08-12T01:34:41.974Z,15.54
2018-08-12T01:35:42.405Z,15.50
2018-08-12T01:55:43.352Z,15.36
2018-08-12T02:11:15.990Z,15.14
2018-08-12T02:21:39.291Z,15.52
2018-08-12T02:26:58.321Z,15.66
2018-08-12T02:30:47.924Z,15.66
2018-08-12T02:33:01.732Z,15.69
2018-08-12T02:40:24.449Z,15.72
2018-08-12T02:55:09.884Z,15.41
2018-08-12T03:14:32.532Z,15.45
2018-08-12T03:17:28.310Z,15.43
2018-08-12T03:18:29.458Z,15.38
2018-08-12T03:19:48.700Z,15.38
2018-08-12T03:20:27.480Z,15.30
2018-08-12T03:24:07.920Z,15.43
2018-08-12T03:25:08.153Z,15.35
2018-08-12T03:34:32.082Z,15.60
2018-08-12T03:45:48.612Z,15.83
2018-08-12T03:49:34.176Z,15.76
2018-08-12T04:10:27.235Z,16.24
2018-08-12T04:11:53.927Z,16.24
2018-08-12T04:12:27.166Z,16.17
2018-08-12T04:25:10.355Z,16.26
2018-08-12T04:28:11.371Z,16.24
2018-08-12T04:36:07.705Z,16.33
2018-08-12T05:23:35.934Z,17.30
2018-08-12T06:01:14.674Z,18.05
2018-08-12T06:02:09.852Z,18.11
2018-08-12T06:24:06.356Z,18.67
2018-08-12T06:25:05.003Z,18.70
2018-08-12T10:25:37.676Z,25.85
2018-08-12T10:38:55.188Z,26.03
2018-08-12T10:39:39.615Z,26.20
2018-08-12T10:40:36.718Z,26.16
2018-08-12T10:41:37.636Z,26.36
2018-08-12T10:44:45.727Z,26.20
2018-08-12T10:47:07.173Z,26.19
2018-08-12T11:06:38.959Z,26.94
2018-08-12T11:07:38.704Z,26.80
2018-08-12T11:10:25.882Z,26.49
2018-08-12T11:11:39.174Z,26.65
2018-08-12T11:12:24.680Z,26.57
2018-08-12T11:16:43.107Z,26.64
2018-08-12T11:24:45.074Z,27.35
2018-08-12T11:27:27.997Z,27.42
2018-08-12T11:28:25.261Z,27.50
2018-08-12T11:30:59.236Z,27.49
2018-08-12T11:31:58.902Z,27.87
2018-08-12T11:32:59.109Z,28.30
2018-08-12T11:34:09.345Z,28.86
2018-08-12T11:35:56.811Z,29.66
2018-08-12T11:36:55.705Z,29.78
2018-08-12T11:38:55.714Z,30.26
2018-08-12T11:39:54.776Z,30.68
2018-08-12T11:40:54.189Z,31.27
2018-08-12T11:41:54.794Z,31.34
2018-08-12T11:42:53.867Z,31.41
2018-08-12T11:43:53.839Z,31.26
2018-08-12T11:44:53.786Z,31.15
2018-08-12T11:45:53.817Z,31.17
2018-08-12T11:46:53.717Z,31.02
2018-08-12T11:47:53.756Z,30.99
2018-08-12T11:48:53.693Z,31.41
2018-08-12T11:49:53.842Z,31.33
2018-08-12T11:50:53.733Z,31.76
2018-08-12T11:51:53.723Z,31.86
2018-08-12T11:52:53.697Z,32.05
2018-08-12T11:53:53.715Z,32.26
2018-08-12T11:54:53.622Z,32.05
2018-08-12T11:55:53.640Z,31.45
2018-08-12T11:56:53.603Z,31.48
2018-08-12T11:57:53.598Z,31.44
2018-08-12T11:58:53.653Z,31.39
2018-08-12T11:59:53.480Z,31.56
2018-08-12T12:00:53.745Z,31.68
2018-08-12T12:03:23.931Z,32.32
2018-08-12T12:04:23.423Z,32.32
2018-08-12T12:06:17.785Z,31.12
2018-08-12T12:07:17.313Z,30.74
2018-08-12T12:09:21.920Z,30.59
2018-08-12T12:10:21.585Z,30.21
2018-08-12T12:12:27.036Z,31.26
2018-08-12T12:13:26.866Z,31.44
2018-08-12T12:15:25.255Z,31.05
2018-08-12T12:16:24.428Z,31.84
2018-08-12T12:18:28.922Z,31.51
2018-08-12T12:21:29.743Z,31.33
2018-08-12T12:22:29.664Z,31.19
2018-08-12T12:24:41.185Z,30.75
2018-08-12T12:25:40.971Z,31.02
2018-08-12T12:27:36.311Z,31.51
2018-08-12T12:28:35.761Z,31.20
2018-08-12T12:30:33.313Z,30.74
2018-08-12T12:31:33.106Z,30.83
2018-08-12T12:33:37.673Z,31.45
2018-08-12T12:34:38.322Z,30.96
2018-08-12T12:36:53.051Z,31.78
2018-08-12T12:37:49.803Z,32.31
2018-08-12T12:38:49.954Z,32.31
2018-08-12T12:39:50.404Z,32.72
2018-08-12T12:40:49.453Z,32.88
2018-08-12T12:42:05.077Z,32.64
2018-08-12T12:43:52.928Z,31.32
2018-08-12T12:44:52.841Z,31.74
2018-08-12T12:46:58.441Z,31.71
2018-08-12T12:47:58.144Z,31.94
2018-08-12T12:49:59.081Z,32.01
2018-08-12T12:50:59.604Z,32.55
2018-08-12T12:53:22.409Z,32.76
2018-08-12T12:54:21.371Z,32.64
2018-08-12T12:56:13.358Z,32.11
2018-08-12T12:57:13.020Z,32.42
2018-08-12T12:59:23.648Z,32.55
2018-08-12T13:00:23.346Z,33.27
2018-08-12T13:02:28.618Z,33.47
2018-08-12T13:03:49.728Z,33.09
2018-08-12T13:05:25.602Z,33.12
2018-08-12T13:06:25.600Z,32.27
2018-08-12T13:08:23.628Z,32.19
2018-08-12T13:09:24.430Z,31.99
2018-08-12T13:11:24.189Z,32.55
2018-08-12T13:12:24.576Z,32.99
2018-08-12T13:14:33.746Z,33.51
2018-08-12T13:15:33.310Z,32.92
2018-08-12T13:17:33.626Z,33.51
2018-08-12T13:18:33.325Z,33.03
2018-08-12T13:20:29.437Z,34.20
2018-08-12T13:21:29.022Z,33.57
2018-08-12T13:23:39.150Z,33.22
2018-08-12T13:24:55.856Z,33.93
2018-08-12T13:26:39.609Z,33.29
2018-08-12T13:27:39.383Z,33.32
2018-08-12T13:29:43.072Z,34.26
2018-08-12T13:30:43.367Z,34.19
2018-08-12T13:32:42.186Z,34.73
2018-08-12T13:33:42.286Z,34.60
2018-08-12T13:34:41.757Z,34.37
2018-08-12T13:35:41.901Z,34.59
2018-08-12T13:36:41.801Z,34.66
2018-08-12T13:37:41.556Z,35.04
2018-08-12T13:38:41.614Z,35.23
2018-08-12T13:39:41.672Z,34.73
2018-08-12T13:40:41.596Z,34.44
2018-08-12T13:41:41.727Z,34.45
2018-08-12T13:42:41.505Z,33.54
2018-08-12T13:43:41.552Z,33.63
2018-08-12T13:44:41.488Z,33.45
2018-08-12T13:45:41.468Z,33.64
2018-08-12T13:46:41.506Z,33.33
2018-08-12T13:47:41.495Z,33.32
2018-08-12T13:48:41.552Z,33.82
2018-08-12T13:49:41.432Z,33.49
2018-08-12T13:50:43.234Z,34.10
2018-08-12T13:51:41.435Z,34.11
2018-08-12T13:52:41.413Z,34.01
2018-08-12T13:53:41.500Z,34.50
2018-08-12T13:54:42.152Z,34.47
2018-08-12T13:55:41.377Z,33.30
2018-08-12T13:56:41.368Z,33.16
2018-08-12T13:57:41.434Z,33.64
2018-08-12T13:58:41.438Z,34.34
2018-08-12T14:01:26.177Z,35.70
2018-08-12T14:02:42.050Z,36.06
2018-08-12T14:04:29.949Z,35.26
2018-08-12T14:05:29.670Z,35.39
2018-08-12T14:07:32.452Z,35.16
2018-08-12T14:08:32.382Z,34.97
2018-08-12T14:10:38.783Z,33.95
2018-08-12T14:11:38.485Z,33.93
2018-08-12T14:13:43.164Z,32.60
2018-08-12T14:14:42.921Z,33.48
2018-08-12T14:16:40.139Z,33.71
2018-08-12T14:17:40.253Z,32.90
2018-08-12T14:19:44.842Z,33.45
2018-08-12T14:20:43.144Z,33.39
2018-08-12T14:22:46.600Z,34.67
2018-08-12T14:23:46.725Z,34.67
2018-08-12T14:25:42.887Z,34.19
2018-08-12T14:26:42.816Z,34.26
2018-08-12T14:28:41.724Z,34.72
2018-08-12T14:29:41.647Z,34.34
2018-08-12T14:31:44.736Z,34.92
2018-08-12T14:32:45.101Z,35.38
2018-08-12T14:34:42.868Z,35.88
2018-08-12T14:35:42.862Z,35.69
2018-08-12T14:37:39.416Z,34.97
2018-08-12T14:38:39.252Z,34.83
2018-08-12T14:39:39.823Z,35.29
2018-08-12T14:40:39.271Z,34.48
2018-08-12T14:41:39.130Z,34.85
2018-08-12T14:42:39.118Z,34.94
2018-08-12T14:43:39.099Z,34.94
2018-08-12T14:44:39.212Z,34.92
2018-08-12T14:45:39.209Z,34.95
2018-08-12T14:46:39.093Z,35.56
2018-08-12T14:47:39.070Z,36.15
2018-08-12T14:48:39.135Z,36.48
2018-08-12T14:49:39.044Z,36.56
2018-08-12T14:50:39.040Z,36.94
2018-08-12T14:51:39.306Z,37.07
2018-08-12T14:52:39.129Z,36.71
2018-08-12T14:53:39.039Z,36.47
2018-08-12T14:54:39.050Z,37.12
2018-08-12T14:55:39.004Z,37.32
2018-08-12T14:56:39.035Z,37.64
2018-08-12T14:57:39.039Z,36.98
2018-08-12T14:58:39.116Z,36.45
2018-08-12T14:59:39.015Z,36.74
2018-08-12T15:00:38.974Z,37.54
2018-08-12T15:01:39.059Z,38.18
2018-08-12T15:03:12.402Z,38.57
2018-08-12T15:03:39.239Z,37.64
2018-08-12T15:04:40.497Z,37.04
2018-08-12T15:05:39.627Z,36.69
2018-08-12T15:08:33.533Z,35.50
2018-08-12T15:09:30.028Z,35.54
2018-08-12T15:10:29.958Z,35.69
2018-08-12T15:11:30.317Z,36.14
2018-08-12T15:12:30.139Z,35.77
2018-08-12T15:13:29.749Z,35.66
2018-08-12T15:14:29.661Z,35.14
2018-08-12T15:15:29.703Z,35.51
2018-08-12T15:16:29.616Z,35.75
2018-08-12T15:17:29.614Z,35.68
2018-08-12T15:18:29.678Z,35.44
2018-08-12T15:19:29.593Z,35.41
2018-08-12T15:20:29.601Z,35.54
2018-08-12T15:21:29.590Z,35.14
2018-08-12T15:22:29.680Z,34.83
2018-08-12T15:23:29.571Z,34.80
2018-08-12T15:24:29.632Z,35.14
2018-08-12T15:25:29.572Z,35.48
2018-08-12T15:26:29.587Z,35.75
2018-08-12T15:27:31.321Z,36.13
2018-08-12T15:28:29.549Z,36.20
2018-08-12T15:29:31.108Z,35.97
2018-08-12T15:30:29.589Z,35.83
2018-08-12T15:31:29.517Z,36.06
2018-08-12T15:32:29.596Z,36.03
2018-08-12T15:33:29.506Z,36.02
2018-08-12T15:34:29.505Z,36.42
2018-08-12T15:35:29.569Z,36.56
2018-08-12T15:36:32.264Z,37.20
2018-08-12T15:37:29.546Z,37.44
2018-08-12T15:38:29.545Z,37.35
2018-08-12T15:39:29.566Z,36.23
2018-08-12T15:40:29.461Z,37.04
2018-08-12T15:41:29.463Z,36.98
2018-08-12T15:42:29.456Z,36.69
2018-08-12T15:43:29.620Z,36.26
2018-08-12T15:44:29.464Z,36.52
2018-08-12T15:45:29.556Z,35.26
2018-08-12T15:46:29.478Z,35.42
2018-08-12T15:47:29.505Z,35.57
2018-08-12T15:48:32.176Z,35.51
2018-08-12T15:49:29.409Z,35.81
2018-08-12T15:50:29.405Z,35.68
2018-08-12T15:51:29.399Z,36.13
2018-08-12T15:52:29.397Z,35.01
2018-08-12T15:53:38.733Z,34.26
2018-08-12T15:55:50.130Z,33.93
2018-08-12T15:56:31.745Z,34.23
2018-08-12T15:58:36.363Z,34.48
2018-08-12T15:59:36.445Z,34.83
2018-08-12T16:00:35.858Z,35.68
2018-08-12T16:01:35.759Z,35.50
2018-08-12T16:02:35.693Z,35.98
2018-08-12T16:03:37.608Z,36.03
2018-08-12T16:04:35.659Z,36.11
2018-08-12T16:05:35.666Z,35.60
2018-08-12T16:06:37.620Z,35.20
2018-08-12T16:07:35.683Z,35.50
2018-08-12T16:08:35.653Z,35.29
2018-08-12T16:09:35.664Z,35.20
2018-08-12T16:10:35.675Z,35.31
2018-08-12T16:11:37.319Z,34.76
2018-08-12T16:13:35.592Z,34.78
2018-08-12T16:14:35.592Z,34.48
2018-08-12T16:15:35.642Z,33.57
2018-08-12T16:16:35.748Z,33.47
2018-08-12T16:17:35.567Z,33.29
2018-08-12T16:18:35.584Z,33.16
2018-08-12T16:19:35.556Z,33.06
2018-08-12T16:20:35.545Z,32.61
2018-08-12T16:21:35.568Z,32.63
2018-08-12T16:22:35.620Z,32.21
2018-08-12T16:23:35.526Z,32.27
2018-08-12T16:24:35.504Z,32.38
2018-08-12T16:25:35.490Z,32.53
2018-08-12T16:26:35.469Z,32.53
2018-08-12T16:27:35.506Z,32.53
2018-08-12T16:28:37.152Z,32.20
2018-08-12T16:29:37.162Z,31.95
2018-08-12T16:30:35.425Z,32.01
2018-08-12T16:31:35.415Z,31.99
2018-08-12T16:32:35.404Z,31.87
2018-08-12T16:33:35.377Z,31.67
2018-08-12T16:34:35.354Z,31.60
2018-08-12T16:35:35.347Z,31.23
2018-08-12T16:36:35.343Z,31.34
2018-08-12T16:37:35.393Z,31.34
2018-08-12T16:38:35.306Z,31.27
2018-08-12T16:39:35.701Z,31.46
2018-08-12T16:40:35.328Z,31.30
2018-08-12T16:41:35.256Z,31.29
2018-08-12T16:42:35.241Z,31.44
2018-08-12T16:43:35.244Z,31.48
2018-08-12T16:44:35.222Z,31.38
2018-08-12T16:45:35.208Z,31.46
2018-08-12T16:46:35.187Z,31.48
2018-08-12T16:47:35.203Z,31.45
2018-08-12T16:48:35.170Z,31.27
2018-08-12T16:49:35.139Z,31.12
2018-08-12T16:50:35.147Z,31.27
2018-08-12T16:51:35.129Z,31.19
2018-08-12T16:52:35.096Z,31.23
2018-08-12T16:53:35.073Z,31.26
2018-08-12T16:54:35.100Z,31.37
2018-08-12T16:55:35.083Z,31.44
2018-08-12T16:56:35.060Z,31.48
2018-08-12T16:57:35.029Z,31.38
2018-08-12T16:58:34.992Z,31.48
2018-08-12T16:59:35.505Z,31.20
2018-08-12T17:00:34.986Z,31.24
2018-08-12T17:01:34.942Z,31.08
2018-08-12T17:02:34.966Z,30.88
2018-08-12T17:03:34.927Z,30.74
2018-08-12T17:04:36.653Z,30.67
2018-08-12T17:05:36.590Z,30.75
2018-08-12T17:06:34.946Z,30.85
2018-08-12T17:07:34.882Z,30.89
2018-08-12T17:08:37.831Z,30.82
2018-08-12T17:09:34.876Z,30.56
2018-08-12T17:10:34.889Z,30.56
2018-08-12T17:11:34.818Z,30.49
2018-08-12T17:12:34.799Z,30.56
2018-08-12T17:13:34.767Z,30.67
2018-08-12T17:14:34.745Z,30.59
2018-08-12T17:15:35.146Z,30.70
2018-08-12T17:16:34.707Z,30.56
2018-08-12T17:17:34.705Z,30.58
2018-08-12T17:18:55.946Z,30.52
2018-08-12T17:19:35.739Z,30.51
2018-08-12T17:20:34.773Z,30.49
2018-08-12T17:21:34.666Z,30.68
2018-08-12T17:22:34.733Z,30.67
2018-08-12T17:23:34.685Z,30.73
2018-08-12T17:24:34.692Z,30.77
2018-08-12T17:25:34.617Z,30.74
2018-08-12T17:26:34.569Z,30.73
2018-08-12T17:27:34.589Z,30.67
2018-08-12T17:28:34.503Z,30.52
2018-08-12T17:29:35.445Z,30.65
2018-08-12T17:30:34.550Z,30.58
2018-08-12T17:31:34.527Z,30.52
2018-08-12T17:32:36.185Z,30.64
2018-08-12T17:33:34.463Z,30.59
2018-08-12T17:34:36.299Z,30.45
2018-08-12T17:35:34.555Z,30.33
2018-08-12T17:36:34.356Z,30.21
2018-08-12T17:37:34.418Z,30.20
2018-08-12T17:38:34.441Z,30.32
2018-08-12T17:39:34.303Z,30.18
2018-08-12T17:40:34.299Z,30.02
2018-08-12T17:41:34.301Z,29.99
2018-08-12T17:42:34.313Z,30.05
2018-08-12T17:43:34.234Z,30.07
2018-08-12T17:44:34.410Z,30.10
2018-08-12T17:45:34.211Z,30.00
2018-08-12T17:46:34.200Z,29.93
2018-08-12T17:47:34.167Z,29.92
2018-08-12T17:48:34.313Z,29.78
2018-08-12T17:49:34.245Z,29.71
2018-08-12T17:50:34.184Z,29.74
2018-08-12T17:51:34.259Z,29.70
2018-08-12T17:52:35.651Z,29.63
2018-08-12T17:53:34.119Z,29.56
2018-08-12T17:54:34.843Z,29.41
2018-08-12T17:55:34.043Z,29.41
2018-08-12T17:56:34.002Z,29.43
2018-08-12T17:57:34.054Z,29.24
2018-08-12T17:58:33.961Z,29.31
2018-08-12T17:59:33.969Z,29.27
2018-08-12T18:00:33.927Z,29.18
2018-08-12T18:01:33.911Z,29.25
2018-08-12T18:02:33.954Z,29.18
2018-08-12T18:03:33.988Z,29.13
2018-08-12T18:04:33.857Z,29.25
2018-08-12T18:05:33.940Z,29.24
2018-08-12T18:06:36.582Z,29.13
2018-08-12T18:07:33.799Z,29.06
2018-08-12T18:08:50.972Z,29.02
2018-08-12T18:10:32.364Z,28.98
2018-08-12T18:11:32.298Z,28.79
2018-08-12T18:13:54.615Z,28.74
2018-08-12T18:14:35.095Z,28.87
2018-08-12T18:16:32.999Z,28.75
2018-08-12T18:17:33.089Z,28.72
2018-08-12T18:19:34.546Z,28.59
2018-08-12T18:20:34.316Z,28.56
2018-08-12T18:21:49.009Z,28.61
2018-08-12T18:23:32.123Z,28.52
2018-08-12T18:24:31.588Z,28.37
2018-08-12T18:29:42.824Z,28.20
2018-08-12T18:30:00.802Z,28.24
2018-08-12T18:32:06.162Z,28.17
2018-08-12T18:33:05.110Z,28.20
2018-08-12T18:35:00.136Z,28.12
2018-08-12T18:36:00.584Z,28.09
2018-08-12T18:38:00.492Z,28.00
2018-08-12T18:39:00.974Z,27.97
2018-08-12T18:40:57.247Z,27.83
2018-08-12T18:41:57.456Z,27.70
2018-08-12T18:43:54.454Z,27.63
2018-08-12T18:44:52.293Z,27.60
2018-08-12T18:46:56.326Z,27.60
2018-08-12T18:47:56.056Z,27.40
2018-08-12T18:48:55.147Z,27.38
2018-08-12T18:49:55.215Z,27.37
2018-08-12T18:50:54.716Z,27.30
2018-08-12T18:51:54.563Z,27.20
2018-08-12T18:52:54.230Z,27.19
2018-08-12T18:53:54.223Z,27.16
2018-08-12T18:54:54.273Z,27.15
2018-08-12T18:55:54.841Z,27.10
2018-08-12T18:56:54.173Z,26.95
2018-08-12T18:57:54.175Z,26.89
2018-08-12T18:58:54.148Z,26.89
2018-08-12T18:59:54.122Z,26.88
2018-08-12T19:00:54.111Z,26.80
2018-08-12T19:02:07.807Z,26.89
2018-08-12T19:03:53.641Z,26.67
2018-08-12T19:04:53.219Z,26.68
2018-08-12T19:06:53.922Z,26.71
2018-08-12T19:07:54.129Z,26.58
2018-08-12T19:09:52.818Z,26.56
2018-08-12T19:12:54.562Z,26.45
2018-08-12T19:13:54.373Z,26.48
2018-08-12T19:15:56.713Z,26.39
2018-08-12T19:16:53.796Z,26.27
2018-08-12T19:18:55.061Z,26.30
2018-08-12T19:19:54.970Z,26.10
2018-08-12T19:21:52.423Z,26.04
2018-08-12T19:22:52.360Z,25.89
2018-08-12T19:23:52.167Z,25.88
2018-08-12T19:24:51.348Z,25.96
2018-08-12T19:25:51.301Z,25.81
2018-08-12T19:26:50.356Z,25.81
2018-08-12T19:27:49.872Z,25.81
2018-08-12T19:28:50.037Z,25.66
2018-08-12T19:29:49.789Z,25.64
2018-08-12T19:30:49.974Z,25.53
2018-08-12T19:31:49.717Z,25.45
2018-08-12T19:32:49.768Z,25.49
2018-08-12T19:33:49.706Z,25.46
2018-08-12T19:34:49.698Z,25.40
2018-08-12T19:35:49.556Z,25.37
2018-08-12T19:36:49.644Z,25.30
2018-08-12T19:37:49.538Z,25.36
2018-08-12T19:38:49.505Z,25.30
2018-08-12T19:39:49.488Z,25.23
2018-08-12T19:40:49.470Z,25.26
2018-08-12T19:41:49.446Z,25.21
2018-08-12T19:42:49.476Z,25.23
2018-08-12T19:43:49.847Z,25.28
2018-08-12T19:44:49.362Z,25.16
2018-08-12T19:45:49.356Z,25.21
2018-08-12T19:47:11.349Z,25.09
2018-08-12T19:48:45.650Z,24.93
2018-08-12T19:49:45.768Z,24.90
2018-08-12T19:51:45.641Z,24.84
2018-08-12T19:52:46.077Z,24.75
2018-08-12T19:54:43.931Z,24.74
2018-08-12T19:55:42.498Z,24.66
2018-08-12T19:57:41.890Z,24.78
2018-08-12T19:58:41.644Z,24.65
2018-08-12T20:00:45.865Z,24.63
2018-08-12T20:01:46.434Z,24.52
2018-08-12T20:03:40.687Z,24.52
2018-08-12T20:04:40.006Z,24.44
2018-08-12T20:06:46.687Z,24.43
2018-08-12T20:07:46.203Z,24.47
2018-08-12T20:09:50.146Z,24.38
2018-08-12T20:10:49.858Z,24.37
2018-08-12T20:12:53.692Z,24.48
2018-08-12T20:13:53.275Z,24.45
2018-08-12T20:15:56.186Z,24.47
2018-08-12T20:16:55.849Z,24.41
2018-08-12T20:18:53.985Z,24.48
2018-08-12T20:19:55.004Z,24.48
2018-08-12T20:21:54.309Z,24.36
2018-08-12T20:22:53.819Z,24.37
2018-08-12T20:24:54.394Z,24.26
2018-08-12T20:25:53.326Z,24.28
2018-08-12T20:27:54.088Z,24.34
2018-08-12T20:28:51.862Z,24.23
2018-08-12T20:30:58.111Z,24.26
2018-08-12T20:31:57.101Z,24.22
2018-08-12T20:32:56.642Z,24.31
2018-08-12T20:33:58.692Z,24.26
2018-08-12T20:34:57.173Z,24.21
2018-08-12T20:35:56.292Z,24.16
2018-08-12T20:36:57.558Z,24.13
2018-08-12T20:37:55.966Z,24.08
2018-08-12T20:38:55.915Z,24.19
2018-08-12T20:39:57.647Z,24.08
2018-08-12T20:40:55.966Z,24.18
2018-08-12T20:41:55.790Z,24.21
2018-08-12T20:42:55.674Z,24.21
2018-08-12T20:43:55.732Z,24.15
2018-08-12T20:44:55.648Z,24.23
2018-08-12T20:45:55.649Z,24.23
2018-08-12T20:46:55.579Z,24.22
2018-08-12T20:47:55.555Z,24.16
2018-08-12T20:48:55.798Z,24.10
2018-08-12T20:49:55.506Z,24.06
2018-08-12T20:50:55.481Z,24.11
2018-08-12T20:51:55.482Z,24.07
2018-08-12T20:52:55.439Z,24.08
2018-08-12T20:53:56.983Z,24.08
2018-08-12T20:55:15.249Z,24.08
2018-08-12T20:56:55.143Z,24.01
2018-08-12T20:57:54.016Z,24.00
2018-08-12T20:59:49.107Z,23.91
2018-08-12T21:00:49.331Z,23.71
2018-08-12T21:02:54.465Z,23.66
2018-08-12T21:03:50.964Z,23.61
2018-08-12T21:05:47.604Z,23.61
2018-08-12T21:06:48.394Z,23.71
2018-08-12T21:08:46.221Z,23.61
2018-08-12T21:09:44.220Z,23.46
2018-08-12T21:11:41.288Z,23.44
2018-08-12T21:12:41.062Z,23.37
2018-08-12T21:14:47.201Z,23.26
2018-08-12T21:15:46.169Z,23.15
2018-08-12T21:16:45.859Z,23.11
2018-08-12T21:17:46.980Z,23.21
2018-08-12T21:18:45.664Z,23.13
2018-08-12T21:19:45.465Z,23.15
2018-08-12T21:20:47.207Z,23.08
2018-08-12T21:21:45.095Z,23.10
2018-08-12T21:22:45.071Z,23.17
2018-08-12T21:23:45.049Z,23.15
2018-08-12T21:24:45.019Z,23.08
2018-08-12T21:25:45.220Z,23.21
2018-08-12T21:26:45.033Z,23.21
2018-08-12T21:27:45.057Z,23.21
2018-08-12T21:28:45.186Z,23.17
2018-08-12T21:30:09.899Z,23.14
2018-08-12T21:31:50.934Z,23.18
2018-08-12T21:32:49.454Z,23.10
2018-08-12T21:34:51.311Z,23.06
2018-08-12T21:35:50.739Z,23.08
2018-08-12T21:38:00.255Z,23.06
2018-08-12T21:39:00.822Z,23.03
2018-08-12T21:40:00.311Z,23.06
2018-08-12T21:41:00.890Z,22.93
2018-08-12T21:42:00.272Z,22.98
2018-08-12T21:43:00.022Z,22.88
2018-08-12T21:43:59.641Z,22.80
2018-08-12T21:45:17.086Z,22.92
2018-08-12T21:47:16.968Z,22.92
2018-08-12T21:50:30.684Z,22.74
2018-08-12T21:51:31.189Z,22.74
2018-08-12T21:56:01.096Z,22.62
2018-08-12T21:56:13.170Z,22.61
2018-08-12T21:58:16.770Z,22.59
2018-08-12T21:59:16.440Z,22.59
2018-08-12T22:01:18.898Z,22.58
2018-08-12T22:02:18.797Z,22.53
2018-08-12T22:04:24.594Z,22.41
2018-08-12T22:05:25.306Z,22.56
2018-08-12T22:07:29.323Z,22.53
2018-08-12T22:08:28.953Z,22.44
2018-08-12T22:10:37.726Z,22.44
2018-08-12T22:11:38.403Z,22.43
2018-08-12T22:12:37.497Z,22.38
2018-08-12T22:13:37.535Z,22.40
2018-08-12T22:14:37.961Z,22.36
2018-08-12T22:15:37.349Z,22.34
2018-08-12T22:16:37.943Z,22.28
2018-08-12T22:17:36.974Z,22.23
2018-08-12T22:18:36.987Z,22.23
2018-08-12T22:19:36.979Z,22.28
2018-08-12T22:20:36.910Z,22.25
2018-08-12T22:21:37.906Z,22.25
2018-08-12T22:22:36.871Z,22.19
2018-08-12T22:23:36.860Z,22.22
2018-08-12T22:24:36.854Z,22.13
2018-08-12T22:25:36.828Z,22.09
2018-08-12T22:26:36.795Z,22.15
2018-08-12T22:27:36.753Z,22.12
2018-08-12T22:28:36.732Z,22.03
2018-08-12T22:29:36.717Z,22.00
2018-08-12T22:30:36.767Z,21.93
2018-08-12T22:31:36.643Z,22.03
2018-08-12T22:32:36.640Z,21.97
2018-08-12T22:33:36.674Z,21.93
2018-08-12T22:34:36.576Z,21.90
2018-08-12T22:35:36.573Z,21.96
2018-08-12T22:36:36.561Z,21.91
2018-08-12T22:37:36.535Z,21.84
2018-08-12T22:38:38.335Z,21.84
2018-08-12T22:39:36.563Z,21.77
2018-08-12T22:40:36.445Z,21.73
2018-08-12T22:41:36.480Z,21.74
2018-08-12T22:42:36.493Z,21.75
2018-08-12T22:43:36.413Z,21.80
2018-08-12T22:44:36.333Z,21.71
2018-08-12T22:45:36.359Z,21.67
2018-08-12T22:46:36.433Z,21.75
2018-08-12T22:47:36.279Z,21.67
2018-08-12T22:48:36.317Z,21.56
2018-08-12T22:49:36.312Z,21.56
2018-08-12T22:50:36.273Z,21.53
2018-08-12T22:51:36.162Z,21.43
2018-08-12T22:52:36.172Z,21.50
2018-08-12T22:53:36.183Z,21.60
2018-08-12T22:54:36.158Z,21.59
2018-08-12T22:55:36.169Z,21.47
2018-08-12T22:56:36.064Z,21.50
2018-08-12T22:57:36.012Z,21.45
2018-08-12T22:58:36.055Z,21.45
2018-08-12T22:59:36.044Z,21.43
2018-08-12T23:00:35.993Z,21.45
2018-08-12T23:01:35.971Z,21.47
2018-08-12T23:02:35.942Z,21.45
2018-08-12T23:03:36.029Z,21.45
2018-08-12T23:04:35.873Z,21.47
2018-08-12T23:05:35.839Z,21.38
2018-08-12T23:06:35.842Z,21.41
2018-08-12T23:07:35.852Z,21.43
2018-08-12T23:08:36.070Z,21.47
2018-08-12T23:09:35.729Z,21.45
2018-08-12T23:10:35.726Z,21.47
2018-08-12T23:11:35.677Z,21.50
2018-08-12T23:12:35.650Z,21.44
2018-08-12T23:13:35.785Z,21.25
2018-08-12T23:14:35.602Z,21.34
2018-08-12T23:15:35.650Z,21.25
2018-08-12T23:16:35.595Z,21.20
2018-08-12T23:17:35.535Z,21.20
2018-08-12T23:18:35.499Z,21.18
2018-08-12T23:19:35.534Z,21.19
2018-08-12T23:20:35.452Z,21.10
2018-08-12T23:21:35.545Z,21.16
2018-08-12T23:22:37.007Z,21.16
2018-08-12T23:23:35.430Z,21.07
2018-08-12T23:24:35.374Z,21.08
2018-08-12T23:25:35.481Z,21.08
2018-08-12T23:26:35.394Z,21.10
2018-08-12T23:27:35.297Z,21.05
2018-08-12T23:28:35.271Z,21.07
2018-08-12T23:29:35.235Z,21.10
2018-08-12T23:30:35.206Z,21.10
2018-08-12T23:31:35.184Z,21.16
2018-08-12T23:32:35.272Z,21.14
2018-08-12T23:33:35.247Z,21.20
2018-08-12T23:34:35.289Z,21.22
2018-08-12T23:35:35.098Z,21.18
2018-08-12T23:36:35.157Z,21.14
2018-08-12T23:37:35.047Z,21.19
2018-08-12T23:38:36.451Z,21.18
2018-08-12T23:39:35.034Z,21.25
2018-08-12T23:40:34.959Z,21.28
2018-08-12T23:41:34.977Z,21.29
2018-08-12T23:42:34.910Z,21.23
2018-08-12T23:43:34.895Z,21.28
2018-08-12T23:44:34.866Z,21.23
2018-08-12T23:45:48.011Z,21.38
2018-08-12T23:47:31.895Z,21.32
2018-08-12T23:48:32.153Z,21.28
2018-08-12T23:50:29.522Z,21.32
2018-08-12T23:51:30.020Z,21.23
2018-08-12T23:53:25.592Z,21.26
2018-08-12T23:54:25.609Z,21.22
2018-08-12T23:55:25.435Z,21.29
2018-08-12T23:56:25.254Z,21.26
2018-08-12T23:57:25.115Z,21.29
2018-08-12T23:58:25.071Z,21.37
2018-08-12T23:59:24.961Z,21.29
